createdAt,value
2022-10-07T00:01:31.395Z,16.41
2022-10-07T00:03:58.295Z,16.03
2022-10-07T00:06:24.936Z,16.51
2022-10-07T00:08:52.505Z,15.26
2022-10-07T00:11:23.980Z,15.40
2022-10-07T00:13:53.060Z,15.56
2022-10-07T00:16:21.269Z,15.67
2022-10-07T00:18:51.975Z,15.73
2022-10-07T00:21:19.775Z,14.93
2022-10-07T00:23:47.220Z,15.37
2022-10-07T00:26:16.055Z,15.48
2022-10-07T00:28:43.075Z,15.33
2022-10-07T00:31:12.739Z,15.33
2022-10-07T00:33:40.099Z,15.59
2022-10-07T00:36:14.976Z,15.67
2022-10-07T00:38:41.774Z,15.55
2022-10-07T00:41:09.413Z,15.37
2022-10-07T00:43:36.062Z,15.55
2022-10-07T00:46:07.622Z,15.74
2022-10-07T00:48:36.529Z,14.97
2022-10-07T00:51:03.448Z,15.43
2022-10-07T00:53:31.728Z,15.71
2022-10-07T00:56:01.937Z,15.56
2022-10-07T00:58:33.329Z,15.53
2022-10-07T01:00:59.993Z,15.26
2022-10-07T01:03:26.807Z,15.53
2022-10-07T01:05:53.495Z,15.52
2022-10-07T01:08:21.168Z,15.34
2022-10-07T01:11:14.286Z,15.51
2022-10-07T01:13:59.372Z,15.40
2022-10-07T01:16:33.054Z,15.30
2022-10-07T01:19:04.128Z,15.18
2022-10-07T01:21:33.959Z,15.35
2022-10-07T01:24:00.586Z,15.27
2022-10-07T01:26:40.353Z,15.39
2022-10-07T01:29:21.553Z,15.44
2022-10-07T01:32:01.269Z,15.52
2022-10-07T01:34:28.618Z,15.55
2022-10-07T01:36:58.549Z,15.58
2022-10-07T01:39:29.408Z,15.62
2022-10-07T01:41:57.030Z,15.72
2022-10-07T01:44:26.673Z,15.48
2022-10-07T01:46:53.432Z,15.44
2022-10-07T01:49:20.035Z,15.28
2022-10-07T01:51:49.512Z,15.45
2022-10-07T01:54:41.450Z,15.50
2022-10-07T01:57:11.120Z,15.47
2022-10-07T01:59:51.509Z,15.46
2022-10-07T02:02:35.591Z,15.49
2022-10-07T02:05:21.030Z,15.48
2022-10-07T02:07:53.769Z,15.41
2022-10-07T02:10:38.838Z,15.42
2022-10-07T02:13:15.520Z,15.41
2022-10-07T02:15:53.133Z,15.44
2022-10-07T02:18:20.643Z,15.36
2022-10-07T02:20:49.353Z,15.42
2022-10-07T02:23:18.327Z,15.48
2022-10-07T02:25:47.191Z,15.33
2022-10-07T02:28:16.368Z,15.39
2022-10-07T02:30:45.099Z,15.51
2022-10-07T02:33:12.549Z,15.40
2022-10-07T02:35:48.119Z,15.14
2022-10-07T02:38:16.524Z,15.17
2022-10-07T02:40:49.080Z,15.25
2022-10-07T02:43:23.554Z,15.22
2022-10-07T02:45:55.152Z,14.90
2022-10-07T02:48:32.941Z,14.96
2022-10-07T02:51:02.310Z,15.03
2022-10-07T02:53:30.036Z,15.11
2022-10-07T02:55:57.472Z,15.07
2022-10-07T02:58:26.750Z,15.15
2022-10-07T03:00:58.149Z,15.05
2022-10-07T03:03:25.849Z,14.91
2022-10-07T03:05:52.924Z,14.91
2022-10-07T03:08:20.281Z,14.67
2022-10-07T03:10:46.961Z,14.95
2022-10-07T03:13:15.721Z,14.88
2022-10-07T03:15:43.356Z,14.74
2022-10-07T03:18:26.737Z,14.52
2022-10-07T03:20:55.559Z,14.69
2022-10-07T03:23:25.771Z,14.56
2022-10-07T03:25:53.235Z,14.78
2022-10-07T03:28:21.035Z,14.46
2022-10-07T03:30:48.142Z,14.65
2022-10-07T03:33:15.261Z,14.55
2022-10-07T03:35:42.222Z,14.49
2022-10-07T03:38:10.035Z,14.45
2022-10-07T03:40:37.211Z,14.51
2022-10-07T03:43:04.541Z,14.53
2022-10-07T03:45:31.263Z,14.50
2022-10-07T03:47:58.790Z,14.49
2022-10-07T03:50:26.460Z,14.42
2022-10-07T03:52:53.051Z,14.65
2022-10-07T03:55:20.131Z,14.47
2022-10-07T03:57:58.566Z,14.63
2022-10-07T04:00:26.782Z,14.49
2022-10-07T04:02:53.595Z,14.32
2022-10-07T04:05:21.079Z,14.34
2022-10-07T04:07:48.596Z,14.34
2022-10-07T04:10:17.152Z,14.29
2022-10-07T04:12:44.401Z,14.50
2022-10-07T04:15:14.311Z,14.47
2022-10-07T04:17:45.174Z,14.26
2022-10-07T04:20:13.237Z,14.16
2022-10-07T04:22:39.884Z,14.03
2022-10-07T04:25:25.870Z,14.10
2022-10-07T04:27:54.155Z,14.13
2022-10-07T04:30:21.890Z,14.19
2022-10-07T04:32:51.390Z,14.07
2022-10-07T04:35:18.750Z,13.93
2022-10-07T04:37:45.781Z,14.03
2022-10-07T04:40:12.590Z,14.14
2022-10-07T04:42:57.932Z,14.07
2022-10-07T04:45:24.651Z,13.95
2022-10-07T04:47:51.670Z,13.82
2022-10-07T04:50:18.400Z,13.72
2022-10-07T04:52:45.188Z,13.84
2022-10-07T04:55:12.671Z,13.97
2022-10-07T04:57:39.312Z,13.92
2022-10-07T05:00:06.482Z,13.78
2022-10-07T05:02:33.135Z,13.80
2022-10-07T05:05:00.170Z,13.88
2022-10-07T05:07:27.011Z,13.91
2022-10-07T05:09:53.614Z,13.86
2022-10-07T05:12:20.271Z,13.95
2022-10-07T05:14:46.930Z,13.89
2022-10-07T05:17:14.109Z,13.80
2022-10-07T05:19:41.121Z,13.78
2022-10-07T05:22:07.823Z,13.82
2022-10-07T05:24:34.601Z,13.72
2022-10-07T05:27:01.276Z,13.44
2022-10-07T05:29:27.905Z,13.00
2022-10-07T05:31:54.592Z,13.36
2022-10-07T05:34:21.320Z,13.62
2022-10-07T05:36:47.995Z,14.23
2022-10-07T05:39:15.024Z,14.64
2022-10-07T05:41:45.663Z,15.32
2022-10-07T05:44:13.190Z,15.94
2022-10-07T05:46:40.625Z,16.40
2022-10-07T05:49:07.299Z,16.93
2022-10-07T05:51:33.901Z,17.34
2022-10-07T05:54:00.577Z,17.93
2022-10-07T05:56:27.305Z,18.75
2022-10-07T05:58:54.023Z,19.43
2022-10-07T06:01:21.641Z,19.71
2022-10-07T06:03:52.935Z,20.09
2022-10-07T06:06:20.003Z,20.03
2022-10-07T06:08:47.395Z,20.82
2022-10-07T06:11:34.560Z,21.18
2022-10-07T06:14:01.950Z,21.11
2022-10-07T06:16:28.814Z,21.59
2022-10-07T06:18:56.361Z,21.72
2022-10-07T06:21:26.828Z,22.25
2022-10-07T06:23:57.277Z,22.22
2022-10-07T06:26:24.351Z,22.31
2022-10-07T06:28:51.158Z,22.14
2022-10-07T06:31:22.750Z,22.31
2022-10-07T06:33:50.258Z,22.95
2022-10-07T06:36:17.698Z,23.83
2022-10-07T06:38:45.807Z,24.24
2022-10-07T06:41:12.490Z,24.54
2022-10-07T06:43:39.192Z,25.19
2022-10-07T06:46:06.809Z,25.37
2022-10-07T06:48:34.737Z,25.76
2022-10-07T06:51:04.901Z,26.24
2022-10-07T06:53:32.121Z,26.19
2022-10-07T06:56:05.161Z,26.02
2022-10-07T06:58:32.570Z,26.32
2022-10-07T07:01:02.493Z,25.96
2022-10-07T07:03:29.617Z,25.61
2022-10-07T07:05:56.711Z,25.08
2022-10-07T07:08:24.619Z,23.77
2022-10-07T07:10:51.363Z,24.02
2022-10-07T07:13:18.364Z,23.60
2022-10-07T07:15:54.066Z,23.33
2022-10-07T07:18:20.879Z,21.70
2022-10-07T07:20:47.641Z,22.00
2022-10-07T07:23:14.334Z,21.00
2022-10-07T07:25:44.482Z,21.26
2022-10-07T07:28:12.232Z,21.66
2022-10-07T07:30:39.628Z,21.79
2022-10-07T07:33:06.641Z,21.32
2022-10-07T07:35:36.721Z,21.46
2022-10-07T07:38:22.233Z,21.60
2022-10-07T07:40:53.684Z,22.25
2022-10-07T07:43:20.499Z,21.40
2022-10-07T07:45:47.270Z,21.91
2022-10-07T07:48:14.202Z,21.08
2022-10-07T07:50:40.889Z,21.68
2022-10-07T07:53:07.541Z,21.50
2022-10-07T07:55:34.151Z,20.67
2022-10-07T07:58:01.580Z,21.02
2022-10-07T08:00:28.220Z,20.69
2022-10-07T08:02:54.916Z,21.48
2022-10-07T08:05:24.168Z,21.01
2022-10-07T08:07:52.572Z,21.19
2022-10-07T08:10:19.211Z,21.30
2022-10-07T08:12:46.023Z,21.40
2022-10-07T08:15:12.721Z,21.53
2022-10-07T08:17:39.388Z,21.00
2022-10-07T08:20:06.386Z,21.18
2022-10-07T08:22:33.050Z,21.45
2022-10-07T08:25:00.451Z,20.75
2022-10-07T08:27:28.476Z,21.59
2022-10-07T08:29:55.210Z,21.69
2022-10-07T08:32:21.938Z,21.58
2022-10-07T08:34:48.640Z,20.92
2022-10-07T08:37:15.300Z,21.30
2022-10-07T08:39:42.049Z,21.43
2022-10-07T08:42:15.590Z,21.94
2022-10-07T08:44:45.378Z,20.93
2022-10-07T08:47:16.269Z,21.42
2022-10-07T08:50:04.109Z,21.68
2022-10-07T08:52:34.640Z,22.14
2022-10-07T08:55:02.541Z,22.19
2022-10-07T08:57:38.721Z,22.45
2022-10-07T09:00:07.439Z,22.37
2022-10-07T09:03:00.243Z,23.04
2022-10-07T09:05:29.986Z,23.05
2022-10-07T09:07:58.677Z,23.44
2022-10-07T09:10:34.766Z,23.68
2022-10-07T09:13:05.592Z,24.36
2022-10-07T09:15:50.988Z,23.70
2022-10-07T09:18:23.870Z,23.27
2022-10-07T09:20:56.828Z,22.14
2022-10-07T09:23:25.083Z,22.35
2022-10-07T09:25:52.182Z,22.87
2022-10-07T09:28:19.998Z,23.23
2022-10-07T09:30:46.722Z,22.50
2022-10-07T09:33:18.801Z,22.35
2022-10-07T09:35:55.050Z,22.00
2022-10-07T09:38:36.148Z,22.63
2022-10-07T09:41:24.296Z,22.27
2022-10-07T09:44:04.080Z,22.39
2022-10-07T09:46:36.946Z,23.24
2022-10-07T09:49:04.659Z,23.72
2022-10-07T09:51:32.690Z,23.82
2022-10-07T09:54:02.960Z,23.07
2022-10-07T09:56:40.458Z,23.61
2022-10-07T09:59:17.540Z,24.23
2022-10-07T10:02:02.058Z,24.07
2022-10-07T10:04:39.672Z,24.56
2022-10-07T10:07:16.893Z,23.79
2022-10-07T10:09:50.868Z,23.92
2022-10-07T10:12:18.540Z,23.79
2022-10-07T10:14:55.449Z,23.81
2022-10-07T10:17:28.875Z,24.39
2022-10-07T10:19:56.190Z,24.23
2022-10-07T10:22:32.412Z,24.44
2022-10-07T10:25:17.881Z,24.69
2022-10-07T10:27:57.441Z,25.04
2022-10-07T10:30:24.980Z,24.76
2022-10-07T10:32:51.690Z,24.68
2022-10-07T10:35:21.538Z,24.73
2022-10-07T10:38:05.633Z,25.08
2022-10-07T10:40:32.280Z,24.24
2022-10-07T10:43:17.628Z,25.21
2022-10-07T10:45:51.426Z,25.33
2022-10-07T10:48:31.941Z,25.20
2022-10-07T10:51:10.702Z,25.09
2022-10-07T10:53:49.280Z,25.89
2022-10-07T10:56:32.305Z,25.14
2022-10-07T10:59:05.187Z,24.74
2022-10-07T11:01:40.386Z,24.64
2022-10-07T11:04:25.780Z,25.30
2022-10-07T11:07:00.969Z,25.66
2022-10-07T11:09:33.908Z,26.09
2022-10-07T11:12:03.816Z,24.93
2022-10-07T11:14:31.975Z,25.49
2022-10-07T11:17:05.193Z,24.10
2022-10-07T11:19:32.183Z,24.47
2022-10-07T11:22:00.184Z,24.90
2022-10-07T11:24:29.894Z,24.62
2022-10-07T11:26:59.943Z,25.27
2022-10-07T11:29:32.695Z,24.76
2022-10-07T11:32:05.823Z,25.61
2022-10-07T11:34:42.374Z,25.36
2022-10-07T11:37:19.222Z,25.40
2022-10-07T11:39:46.491Z,25.20
2022-10-07T11:42:13.141Z,25.45
2022-10-07T11:44:52.376Z,24.08
2022-10-07T11:47:21.531Z,24.66
2022-10-07T11:49:58.110Z,25.06
2022-10-07T11:52:27.150Z,25.10
2022-10-07T11:55:23.229Z,26.02
2022-10-07T11:57:54.410Z,25.52
2022-10-07T12:00:24.269Z,24.99
2022-10-07T12:02:51.847Z,25.48
2022-10-07T12:05:35.370Z,25.52
2022-10-07T12:08:03.409Z,25.32
2022-10-07T12:10:31.313Z,26.03
2022-10-07T12:12:59.654Z,25.24
2022-10-07T12:15:39.051Z,25.88
2022-10-07T12:18:05.762Z,26.07
2022-10-07T12:20:35.590Z,26.30
2022-10-07T12:23:21.163Z,26.56
2022-10-07T12:25:50.972Z,26.63
2022-10-07T12:28:24.433Z,25.11
2022-10-07T12:30:55.630Z,24.69
2022-10-07T12:33:29.119Z,25.39
2022-10-07T12:35:56.339Z,25.70
2022-10-07T12:38:27.315Z,26.16
2022-10-07T12:41:00.110Z,26.64
2022-10-07T12:43:38.633Z,27.25
2022-10-07T12:46:13.573Z,26.59
2022-10-07T12:48:44.191Z,26.46
2022-10-07T12:51:19.722Z,26.26
2022-10-07T12:53:47.912Z,25.56
2022-10-07T12:56:23.074Z,25.54
2022-10-07T12:59:39.980Z,24.86
2022-10-07T13:02:25.398Z,25.33
2022-10-07T13:04:52.303Z,25.73
2022-10-07T13:07:34.458Z,26.22
2022-10-07T13:10:07.400Z,26.67
2022-10-07T13:12:34.371Z,26.41
2022-10-07T13:15:07.822Z,26.24
2022-10-07T13:17:45.182Z,26.82
2022-10-07T13:20:24.281Z,26.64
2022-10-07T13:22:51.100Z,26.96
2022-10-07T13:25:19.797Z,27.77
2022-10-07T13:27:49.850Z,27.86
2022-10-07T13:30:33.663Z,27.89
2022-10-07T13:33:21.158Z,27.87
2022-10-07T13:35:48.291Z,27.94
2022-10-07T13:38:22.231Z,27.61
2022-10-07T13:40:59.204Z,28.02
2022-10-07T13:43:27.809Z,27.38
2022-10-07T13:45:54.899Z,27.28
2022-10-07T13:48:23.773Z,27.66
2022-10-07T13:50:51.851Z,27.74
2022-10-07T13:53:21.956Z,27.40
2022-10-07T13:55:48.921Z,27.37
2022-10-07T13:58:16.011Z,26.98
2022-10-07T14:00:44.953Z,26.89
2022-10-07T14:03:15.870Z,26.84
2022-10-07T14:05:49.724Z,26.29
2022-10-07T14:08:21.659Z,27.12
2022-10-07T14:10:51.556Z,27.02
2022-10-07T14:13:18.480Z,26.66
2022-10-07T14:15:54.551Z,25.97
2022-10-07T14:18:21.530Z,26.64
2022-10-07T14:20:48.397Z,26.26
2022-10-07T14:23:34.750Z,25.89
2022-10-07T14:26:05.926Z,26.30
2022-10-07T14:28:33.917Z,26.45
2022-10-07T14:31:25.674Z,25.57
2022-10-07T14:34:17.618Z,25.84
2022-10-07T14:37:19.742Z,24.85
2022-10-07T14:39:48.186Z,24.11
2022-10-07T14:42:36.472Z,24.91
2022-10-07T14:45:04.943Z,24.60
2022-10-07T14:47:31.740Z,25.12
2022-10-07T14:50:01.863Z,24.80
2022-10-07T14:52:29.985Z,24.77
2022-10-07T14:55:01.121Z,24.62
2022-10-07T14:57:27.874Z,24.60
2022-10-07T14:59:55.009Z,24.76
2022-10-07T15:02:22.334Z,25.26
2022-10-07T15:04:49.618Z,25.17
2022-10-07T15:07:16.866Z,24.78
2022-10-07T15:09:44.533Z,24.41
2022-10-07T15:12:11.809Z,24.40
2022-10-07T15:14:38.474Z,24.35
2022-10-07T15:17:06.270Z,24.21
2022-10-07T15:19:33.423Z,24.62
2022-10-07T15:22:00.375Z,24.36
2022-10-07T15:24:30.356Z,24.29
2022-10-07T15:26:57.055Z,24.66
2022-10-07T15:29:23.943Z,24.37
2022-10-07T15:31:52.290Z,24.08
2022-10-07T15:34:19.130Z,23.89
2022-10-07T15:36:46.970Z,23.97
2022-10-07T15:39:13.551Z,23.05
2022-10-07T15:41:41.495Z,22.72
2022-10-07T15:44:14.420Z,23.02
2022-10-07T15:46:41.131Z,22.72
2022-10-07T15:49:08.296Z,22.85
2022-10-07T15:51:36.510Z,23.05
2022-10-07T15:54:03.853Z,22.70
2022-10-07T15:56:30.696Z,22.83
2022-10-07T15:58:58.946Z,22.85
2022-10-07T16:01:32.016Z,22.56
2022-10-07T16:03:59.851Z,22.66
2022-10-07T16:06:27.469Z,22.94
2022-10-07T16:08:55.210Z,22.83
2022-10-07T16:11:22.411Z,22.95
2022-10-07T16:13:49.216Z,22.95
2022-10-07T16:16:23.691Z,22.95
2022-10-07T16:18:51.210Z,22.84
2022-10-07T16:21:22.134Z,23.00
2022-10-07T16:23:49.976Z,22.98
2022-10-07T16:26:18.590Z,22.97
2022-10-07T16:29:05.809Z,22.71
2022-10-07T16:31:35.309Z,22.07
2022-10-07T16:34:03.655Z,22.26
2022-10-07T16:36:30.589Z,22.23
2022-10-07T16:38:59.868Z,21.63
2022-10-07T16:41:26.696Z,21.77
2022-10-07T16:43:53.353Z,21.92
2022-10-07T16:46:21.098Z,21.48
2022-10-07T16:48:48.831Z,21.41
2022-10-07T16:51:19.576Z,21.47
2022-10-07T16:53:47.040Z,21.72
2022-10-07T16:56:13.781Z,21.66
2022-10-07T16:58:40.544Z,21.61
2022-10-07T17:01:12.080Z,21.55
2022-10-07T17:03:39.924Z,21.42
2022-10-07T17:06:10.061Z,21.33
2022-10-07T17:08:41.942Z,21.38
2022-10-07T17:11:14.412Z,21.17
2022-10-07T17:13:41.131Z,21.04
2022-10-07T17:16:09.066Z,20.59
2022-10-07T17:18:35.912Z,19.52
2022-10-07T17:21:02.531Z,20.25
2022-10-07T17:23:33.212Z,20.03
2022-10-07T17:26:04.180Z,20.17
2022-10-07T17:28:30.863Z,19.81
2022-10-07T17:31:03.250Z,19.74
2022-10-07T17:33:30.571Z,19.23
2022-10-07T17:36:00.788Z,18.79
2022-10-07T17:38:31.610Z,19.33
2022-10-07T17:40:58.290Z,19.12
2022-10-07T17:43:24.938Z,19.18
2022-10-07T17:45:51.729Z,18.71
2022-10-07T17:48:18.376Z,18.46
2022-10-07T17:50:45.009Z,18.91
2022-10-07T17:53:11.791Z,19.19
2022-10-07T17:55:38.511Z,19.25
2022-10-07T17:58:05.169Z,19.41
2022-10-07T18:00:32.400Z,19.62
2022-10-07T18:02:59.271Z,19.55
2022-10-07T18:05:26.640Z,19.86
2022-10-07T18:07:53.709Z,19.82
2022-10-07T18:10:20.615Z,19.82
2022-10-07T18:13:05.691Z,19.94
2022-10-07T18:15:32.412Z,19.94
2022-10-07T18:17:59.091Z,20.05
2022-10-07T18:20:26.683Z,20.13
2022-10-07T18:22:54.778Z,20.16
2022-10-07T18:25:21.692Z,20.18
2022-10-07T18:27:48.833Z,20.07
2022-10-07T18:30:15.822Z,20.06
2022-10-07T18:32:42.810Z,19.91
2022-10-07T18:35:09.658Z,19.96
2022-10-07T18:37:37.592Z,20.00
2022-10-07T18:40:04.550Z,19.99
2022-10-07T18:42:31.230Z,19.84
2022-10-07T18:44:58.055Z,20.00
2022-10-07T18:47:25.016Z,19.67
2022-10-07T18:49:52.234Z,19.55
2022-10-07T18:52:19.050Z,19.37
2022-10-07T18:54:45.787Z,19.33
2022-10-07T18:57:12.463Z,19.48
2022-10-07T18:59:39.191Z,19.45
2022-10-07T19:02:05.922Z,19.47
2022-10-07T19:04:34.811Z,18.92
2022-10-07T19:07:01.750Z,19.02
2022-10-07T19:09:28.971Z,19.27
2022-10-07T19:11:55.661Z,19.11
2022-10-07T19:14:26.122Z,18.85
2022-10-07T19:16:54.131Z,18.55
2022-10-07T19:19:22.262Z,18.55
2022-10-07T19:21:51.221Z,18.78
2022-10-07T19:24:18.451Z,18.86
2022-10-07T19:26:46.151Z,18.59
2022-10-07T19:29:15.686Z,18.47
2022-10-07T19:31:47.022Z,18.64
2022-10-07T19:34:15.145Z,18.70
2022-10-07T19:36:42.699Z,18.55
2022-10-07T19:39:10.877Z,18.59
2022-10-07T19:41:37.908Z,18.64
2022-10-07T19:44:05.230Z,18.62
2022-10-07T19:46:33.622Z,17.00
2022-10-07T19:49:01.691Z,16.92
2022-10-07T19:51:30.476Z,17.50
2022-10-07T19:53:57.952Z,17.75
2022-10-07T19:56:29.039Z,17.86
2022-10-07T19:58:56.833Z,17.86
2022-10-07T20:01:25.155Z,18.03
2022-10-07T20:03:57.920Z,18.19
2022-10-07T20:06:25.399Z,18.21
2022-10-07T20:08:52.456Z,17.99
2022-10-07T20:11:19.175Z,17.88
2022-10-07T20:13:45.896Z,18.00
2022-10-07T20:16:19.177Z,17.89
2022-10-07T20:18:47.335Z,18.00
2022-10-07T20:21:19.383Z,17.92
2022-10-07T20:23:47.179Z,17.85
2022-10-07T20:26:19.233Z,17.79
2022-10-07T20:28:47.792Z,17.73
2022-10-07T20:31:15.531Z,17.82
2022-10-07T20:33:43.616Z,17.30
2022-10-07T20:36:11.140Z,17.48
2022-10-07T20:38:56.473Z,17.30
2022-10-07T20:41:42.492Z,17.42
2022-10-07T20:44:09.639Z,17.36
2022-10-07T20:46:38.092Z,17.19
2022-10-07T20:49:11.392Z,17.20
2022-10-07T20:51:41.410Z,17.25
2022-10-07T20:54:08.209Z,17.30
2022-10-07T20:56:34.939Z,17.38
2022-10-07T20:59:01.653Z,17.22
2022-10-07T21:01:28.529Z,16.98
2022-10-07T21:03:55.293Z,16.97
2022-10-07T21:06:21.969Z,16.93
2022-10-07T21:08:53.656Z,16.81
2022-10-07T21:11:20.348Z,16.67
2022-10-07T21:13:46.952Z,16.93
2022-10-07T21:16:13.635Z,16.74
2022-10-07T21:18:40.356Z,16.87
2022-10-07T21:21:08.009Z,16.86
2022-10-07T21:23:34.732Z,16.98
2022-10-07T21:26:05.616Z,16.92
2022-10-07T21:28:32.981Z,17.01
2022-10-07T21:31:01.262Z,17.00
2022-10-07T21:33:28.049Z,16.72
2022-10-07T21:36:04.950Z,16.84
2022-10-07T21:38:32.223Z,16.65
2022-10-07T21:41:01.896Z,16.63
2022-10-07T21:43:28.573Z,16.56
2022-10-07T21:45:59.550Z,16.61
2022-10-07T21:48:29.853Z,16.50
2022-10-07T21:50:56.929Z,16.45
2022-10-07T21:53:23.610Z,15.93
2022-10-07T21:55:50.454Z,16.00
2022-10-07T21:58:17.135Z,15.73
2022-10-07T22:00:44.193Z,15.74
2022-10-07T22:03:11.064Z,15.99
2022-10-07T22:05:40.375Z,16.08
2022-10-07T22:08:26.471Z,15.86
2022-10-07T22:11:00.149Z,15.93
2022-10-07T22:13:26.812Z,15.36
2022-10-07T22:15:53.497Z,15.47
2022-10-07T22:18:20.091Z,15.54
2022-10-07T22:20:46.690Z,15.57
2022-10-07T22:23:13.330Z,15.64
2022-10-07T22:25:39.929Z,15.68
2022-10-07T22:28:06.587Z,15.15
2022-10-07T22:30:33.310Z,15.49
2022-10-07T22:32:59.932Z,15.39
2022-10-07T22:35:35.150Z,15.10
2022-10-07T22:38:01.935Z,15.08
2022-10-07T22:40:28.829Z,15.18
2022-10-07T22:42:55.532Z,15.04
2022-10-07T22:45:22.162Z,15.26
2022-10-07T22:47:50.369Z,15.46
2022-10-07T22:50:17.250Z,15.44
2022-10-07T22:52:44.175Z,15.43
2022-10-07T22:55:11.008Z,15.13
2022-10-07T22:57:37.735Z,15.30
2022-10-07T23:00:07.772Z,14.85
2022-10-07T23:02:34.508Z,15.09
2022-10-07T23:05:01.784Z,15.25
2022-10-07T23:07:31.370Z,15.28
2022-10-07T23:09:58.090Z,15.42
2022-10-07T23:12:24.753Z,15.46
2022-10-07T23:14:51.391Z,15.32
2022-10-07T23:17:18.011Z,15.32
2022-10-07T23:19:44.627Z,15.28
2022-10-07T23:22:12.770Z,15.40
2022-10-07T23:24:39.890Z,15.36
2022-10-07T23:27:06.593Z,15.14
2022-10-07T23:29:33.398Z,15.00
2022-10-07T23:32:00.034Z,15.20
2022-10-07T23:34:27.689Z,14.94
2022-10-07T23:36:55.436Z,15.09
2022-10-07T23:39:22.451Z,15.13
2022-10-07T23:41:49.620Z,14.56
2022-10-07T23:44:16.216Z,14.81
2022-10-07T23:46:42.879Z,14.93
2022-10-07T23:49:09.595Z,14.89
2022-10-07T23:51:36.271Z,15.08
2022-10-07T23:54:03.598Z,14.96
2022-10-07T23:56:31.061Z,14.37
2022-10-07T23:58:57.753Z,14.64
